Terminal Aerodrome Forecast
Issued by NWS Wilmington, OH

Home | Current Version | Previous Version | Text Only | Print | Product List | Glossary On
Versions: 1 2 3 4 5 6 7 8 9 10 11 12 13 14 15 16 17 18 19 20 21
000
FTUS41 KILN 230520
TAFCMH
TAF
KCMH 230520Z 2306/2406 03007KT P6SM FEW220
     FM231800 06010G16KT P6SM FEW240
     FM240000 05007KT P6SM FEW240=

USA.gov is the U.S. government's official web portal to all federal, state and local government web resources and services.